createdAt,value
2018-07-28T00:01:02.285Z,18.00
2018-07-28T00:03:34.405Z,18.40
2018-07-28T00:06:04.055Z,17.20
2018-07-28T00:08:32.434Z,18.80
2018-07-28T00:11:14.714Z,20.60
2018-07-28T00:13:42.640Z,19.60
2018-07-28T00:16:12.430Z,19.60
2018-07-28T00:18:43.785Z,19.00
2018-07-28T00:21:13.313Z,19.40
2018-07-28T00:23:42.506Z,16.00
2018-07-28T00:26:16.298Z,16.80
2018-07-28T00:28:44.297Z,16.80
2018-07-28T00:31:14.206Z,17.20
2018-07-28T00:33:46.640Z,15.00
2018-07-28T00:36:16.992Z,18.00
2018-07-28T00:38:50.238Z,16.80
2018-07-28T00:41:17.936Z,17.20
2018-07-28T00:43:48.239Z,19.80
2018-07-28T00:46:16.479Z,17.40
2018-07-28T00:48:45.609Z,17.00
2018-07-28T00:54:45.436Z,15.00
2018-07-28T00:57:13.528Z,16.00
2018-07-28T00:59:41.232Z,13.60
2018-07-28T01:02:10.252Z,18.40
2018-07-28T01:04:39.665Z,16.00
2018-07-28T01:07:17.685Z,15.80
2018-07-28T01:09:46.773Z,12.40
2018-07-28T01:12:14.469Z,17.20
2018-07-28T01:14:42.546Z,16.00
2018-07-28T01:17:10.212Z,16.20
2018-07-28T01:19:37.899Z,12.20
2018-07-28T01:22:05.997Z,12.60
2018-07-28T01:24:33.677Z,15.80
2018-07-28T01:27:01.445Z,12.20
2018-07-28T01:29:29.441Z,15.20
2018-07-28T01:31:57.162Z,14.60
2018-07-28T01:34:24.861Z,17.00
2018-07-28T01:36:52.569Z,15.40
2018-07-28T01:39:20.596Z,12.60
2018-07-28T01:41:48.295Z,14.60
2018-07-28T01:44:15.977Z,14.20
2018-07-28T01:46:43.682Z,15.60
2018-07-28T01:49:11.639Z,14.80
2018-07-28T01:51:39.338Z,12.60
2018-07-28T01:54:07.021Z,16.40
2018-07-28T01:56:34.684Z,17.20
2018-07-28T01:59:02.388Z,16.20
2018-07-28T02:01:30.388Z,17.00
2018-07-28T02:03:58.662Z,17.00
2018-07-28T02:06:26.629Z,14.00
2018-07-28T02:08:54.352Z,16.60
2018-07-28T02:11:22.110Z,16.40
2018-07-28T02:13:50.075Z,15.40
2018-07-28T02:16:17.751Z,16.00
2018-07-28T02:18:45.558Z,13.40
2018-07-28T02:21:13.523Z,19.40
2018-07-28T02:23:41.204Z,16.60
2018-07-28T02:26:09.443Z,18.60
2018-07-28T02:28:37.987Z,16.60
2018-07-28T02:31:05.642Z,16.40
2018-07-28T02:33:33.309Z,13.40
2018-07-28T02:36:01.014Z,17.00
2018-07-28T02:38:29.130Z,16.80
2018-07-28T02:40:56.782Z,15.00
2018-07-28T02:43:24.463Z,14.80
2018-07-28T02:45:53.698Z,16.40
2018-07-28T02:48:21.661Z,15.00
2018-07-28T02:50:49.333Z,17.00
2018-07-28T02:53:16.968Z,16.00
2018-07-28T02:55:45.078Z,15.60
2018-07-28T02:58:12.718Z,18.00
2018-07-28T03:00:40.405Z,16.00
2018-07-28T03:03:08.090Z,16.40
2018-07-28T03:05:36.046Z,15.60
2018-07-28T03:08:03.760Z,15.60
2018-07-28T03:10:31.417Z,16.40
2018-07-28T03:12:59.119Z,15.20
2018-07-28T03:15:30.131Z,17.40
2018-07-28T03:17:57.797Z,16.40
2018-07-28T03:20:25.460Z,16.40
2018-07-28T03:22:53.655Z,18.00
2018-07-28T03:25:21.879Z,15.80
2018-07-28T03:27:49.791Z,17.40
2018-07-28T03:30:17.979Z,16.40
2018-07-28T03:32:45.634Z,17.80
2018-07-28T03:35:13.499Z,18.40
2018-07-28T03:37:41.212Z,16.40
2018-07-28T03:40:09.711Z,18.60
2018-07-28T03:42:37.404Z,17.60
2018-07-28T03:45:05.172Z,17.00
2018-07-28T03:47:33.340Z,17.40
2018-07-28T03:50:01.319Z,17.80
2018-07-28T03:52:29.030Z,18.40
2018-07-28T03:54:56.837Z,17.60
2018-07-28T03:57:26.452Z,17.40
2018-07-28T03:59:54.143Z,16.40
2018-07-28T04:02:22.380Z,17.80
2018-07-28T04:04:50.025Z,18.40
2018-07-28T04:07:18.008Z,20.20
2018-07-28T04:09:45.704Z,11.40
2018-07-28T04:12:13.411Z,19.20
2018-07-28T04:14:41.087Z,21.20
2018-07-28T04:17:09.231Z,18.00
2018-07-28T04:19:36.900Z,18.60
2018-07-28T04:22:04.571Z,16.00
2018-07-28T04:24:32.220Z,10.00
2018-07-28T04:27:01.138Z,19.40
2018-07-28T04:29:28.832Z,18.00
2018-07-28T04:31:57.923Z,15.00
2018-07-28T04:34:25.596Z,18.00
2018-07-28T04:36:54.337Z,18.60
2018-07-28T04:39:22.015Z,17.40
2018-07-28T04:41:49.670Z,18.00
2018-07-28T04:44:17.594Z,15.80
2018-07-28T04:46:45.292Z,12.20
2018-07-28T04:49:12.961Z,20.00
2018-07-28T04:51:40.641Z,14.60
2018-07-28T04:54:08.576Z,18.80
2018-07-28T04:56:36.256Z,18.00
2018-07-28T04:59:03.943Z,18.20
2018-07-28T05:01:31.875Z,16.00
2018-07-28T05:03:59.697Z,16.00
2018-07-28T05:06:27.356Z,19.00
2018-07-28T05:08:55.443Z,16.00
2018-07-28T05:11:23.127Z,16.80
2018-07-28T05:13:50.800Z,19.20
2018-07-28T05:16:18.537Z,17.80
2018-07-28T05:18:48.971Z,19.80
2018-07-28T05:21:16.675Z,17.20
2018-07-28T05:23:44.410Z,17.40
2018-07-28T05:26:12.497Z,12.60
2018-07-28T05:28:40.219Z,19.80
2018-07-28T05:31:07.898Z,18.80
2018-07-28T05:33:35.575Z,20.00
2018-07-28T05:36:03.498Z,19.00
2018-07-28T05:38:31.169Z,17.40
2018-07-28T05:40:58.839Z,17.80
2018-07-28T05:43:26.791Z,19.00
2018-07-28T05:45:55.415Z,19.40
2018-07-28T05:48:23.116Z,20.40
2018-07-28T05:50:50.783Z,18.60
2018-07-28T05:53:18.859Z,22.00
2018-07-28T05:55:46.556Z,20.00
2018-07-28T05:58:14.219Z,20.40
2018-07-28T06:00:41.899Z,19.20
2018-07-28T06:03:09.572Z,17.20
2018-07-28T06:05:38.510Z,19.00
2018-07-28T06:08:06.146Z,18.20
2018-07-28T06:10:33.819Z,19.00
2018-07-28T06:13:03.394Z,22.00
2018-07-28T06:15:31.078Z,18.60
2018-07-28T06:18:00.052Z,19.00
2018-07-28T06:20:28.044Z,21.80
2018-07-28T06:22:55.711Z,21.60
2018-07-28T06:25:23.392Z,19.00
2018-07-28T06:27:51.428Z,17.60
2018-07-28T06:30:19.136Z,18.40
2018-07-28T06:32:46.832Z,19.20
2018-07-28T06:35:14.819Z,17.40
2018-07-28T06:37:42.475Z,22.20
2018-07-28T06:40:10.143Z,19.40
2018-07-28T06:42:38.232Z,21.40
2018-07-28T06:45:05.902Z,20.60
2018-07-28T06:47:33.556Z,21.20
2018-07-28T06:52:33.722Z,22.20
2018-07-28T06:55:01.369Z,20.00
2018-07-28T06:57:29.335Z,20.60
2018-07-28T06:59:57.053Z,21.00
2018-07-28T07:02:24.716Z,18.20
2018-07-28T07:04:53.347Z,17.20
2018-07-28T07:07:21.791Z,15.20
2018-07-28T07:09:50.432Z,19.80
2018-07-28T07:12:18.411Z,20.40
2018-07-28T07:14:46.256Z,21.20
2018-07-28T07:17:13.910Z,19.60
2018-07-28T07:19:41.815Z,17.20
2018-07-28T07:22:10.374Z,17.00
2018-07-28T07:24:38.076Z,17.00
2018-07-28T07:27:06.018Z,20.80
2018-07-28T07:29:33.779Z,12.80
2018-07-28T07:32:01.467Z,16.80
2018-07-28T07:34:31.377Z,23.20
2018-07-28T07:36:59.742Z,16.00
2018-07-28T07:39:27.427Z,17.60
2018-07-28T07:41:55.378Z,21.40
2018-07-28T07:44:23.054Z,18.40
2018-07-28T07:46:50.752Z,17.00
2018-07-28T07:49:18.707Z,20.20
2018-07-28T07:51:46.391Z,18.60
2018-07-28T07:54:15.028Z,18.80
2018-07-28T07:56:43.757Z,19.00
2018-07-28T07:59:11.407Z,17.20
2018-07-28T08:01:39.618Z,18.40
2018-07-28T08:04:07.551Z,18.40
2018-07-28T08:06:35.374Z,18.20
2018-07-28T08:09:04.031Z,18.80
2018-07-28T08:11:34.447Z,19.60
2018-07-28T08:14:02.167Z,17.20
2018-07-28T08:16:29.935Z,20.60
2018-07-28T08:18:57.918Z,18.20
2018-07-28T08:21:25.558Z,18.80
2018-07-28T08:23:54.068Z,15.60
2018-07-28T08:26:22.003Z,18.60
2018-07-28T08:28:50.606Z,16.40
2018-07-28T08:31:18.304Z,15.80
2018-07-28T08:33:46.272Z,16.00
2018-07-28T08:36:13.977Z,19.20
2018-07-28T08:38:41.677Z,20.20
2018-07-28T08:41:09.727Z,21.60
2018-07-28T08:43:37.894Z,15.20
2018-07-28T08:46:05.542Z,23.80
2018-07-28T08:48:33.535Z,15.20
2018-07-28T08:51:01.220Z,18.60
2018-07-28T08:53:29.943Z,20.00
2018-07-28T08:55:57.941Z,23.40
2018-07-28T08:58:26.043Z,15.20
2018-07-28T09:00:54.367Z,21.20
2018-07-28T09:03:23.593Z,25.40
2018-07-28T09:05:51.267Z,24.00
2018-07-28T09:08:20.726Z,25.20
2018-07-28T09:10:49.423Z,22.60
2018-07-28T09:13:17.920Z,19.40
2018-07-28T09:15:45.583Z,19.60
2018-07-28T09:18:13.656Z,25.60
2018-07-28T09:20:42.350Z,27.80
2018-07-28T09:23:10.036Z,29.60
2018-07-28T09:25:38.024Z,27.00
2018-07-28T09:28:05.697Z,31.00
2018-07-28T09:30:33.372Z,25.20
2018-07-28T09:33:02.171Z,24.20
2018-07-28T09:35:30.669Z,27.40
2018-07-28T09:37:58.343Z,25.40
2018-07-28T09:40:26.283Z,30.00
2018-07-28T09:42:53.960Z,27.80
2018-07-28T09:45:21.662Z,29.80
2018-07-28T09:47:49.615Z,28.00
2018-07-28T09:50:17.306Z,27.00
2018-07-28T09:52:46.701Z,28.80
2018-07-28T09:55:14.615Z,25.40
2018-07-28T09:57:42.282Z,27.80
2018-07-28T10:00:10.837Z,28.60
2018-07-28T10:02:39.662Z,30.20
2018-07-28T10:05:08.967Z,31.40
2018-07-28T10:07:36.667Z,30.80
2018-07-28T10:10:04.771Z,32.00
2018-07-28T10:12:32.483Z,31.20
2018-07-28T10:15:00.179Z,25.60
2018-07-28T10:17:28.219Z,31.60
2018-07-28T10:19:55.962Z,34.80
2018-07-28T10:22:23.654Z,27.80
2018-07-28T10:24:51.817Z,26.20
2018-07-28T10:27:20.160Z,33.60
2018-07-28T10:29:47.826Z,28.80
2018-07-28T10:32:16.237Z,27.00
2018-07-28T10:34:43.942Z,23.80
2018-07-28T10:37:13.343Z,20.20
2018-07-28T10:39:42.767Z,26.20
2018-07-28T10:42:10.425Z,27.20
2018-07-28T10:44:40.387Z,27.40
2018-07-28T10:47:09.919Z,29.20
2018-07-28T10:49:37.639Z,20.60
2018-07-28T10:52:05.762Z,26.80
2018-07-28T10:54:34.659Z,29.60
2018-07-28T10:57:02.571Z,27.40
2018-07-28T10:59:30.623Z,24.60
2018-07-28T11:01:58.341Z,27.60
2018-07-28T11:04:26.851Z,27.00
2018-07-28T11:06:56.554Z,26.40
2018-07-28T11:09:24.241Z,29.00
2018-07-28T11:12:09.642Z,27.80
2018-07-28T11:14:37.829Z,23.60
2018-07-28T11:17:05.528Z,30.20
2018-07-28T11:19:34.155Z,25.80
2018-07-28T11:22:02.988Z,26.40
2018-07-28T11:24:30.689Z,24.80
2018-07-28T11:27:01.063Z,25.40
2018-07-28T11:29:30.669Z,23.20
2018-07-28T11:31:58.394Z,23.40
2018-07-28T11:34:26.075Z,23.00
2018-07-28T11:36:55.587Z,21.00
2018-07-28T11:39:23.250Z,24.60
2018-07-28T11:41:52.515Z,25.20
2018-07-28T11:44:20.607Z,19.60
2018-07-28T11:46:48.263Z,20.00
2018-07-28T11:49:17.102Z,17.40
2018-07-28T11:51:46.018Z,25.20
2018-07-28T11:54:16.478Z,21.60
2018-07-28T11:56:44.137Z,21.40
2018-07-28T11:59:12.473Z,18.60
2018-07-28T12:01:40.279Z,20.20
2018-07-28T12:04:08.623Z,18.00
2018-07-28T12:06:36.747Z,20.80
2018-07-28T12:09:04.438Z,19.80
2018-07-28T12:11:32.375Z,18.60
2018-07-28T12:14:01.193Z,17.60
2018-07-28T12:16:28.887Z,18.20
2018-07-28T12:18:56.571Z,16.60
2018-07-28T12:21:24.524Z,17.40
2018-07-28T12:23:52.946Z,17.80
2018-07-28T12:26:20.657Z,17.00
2018-07-28T12:28:50.400Z,15.60
2018-07-28T12:31:18.141Z,14.60
2018-07-28T12:33:45.898Z,12.20
2018-07-28T12:36:15.670Z,14.60
2018-07-28T12:38:44.487Z,16.00
2018-07-28T12:41:13.151Z,15.80
2018-07-28T12:43:41.279Z,16.40
2018-07-28T12:46:08.946Z,15.40
2018-07-28T12:48:36.578Z,15.00
2018-07-28T12:51:04.688Z,15.80
2018-07-28T12:53:32.372Z,16.20
2018-07-28T12:56:00.119Z,13.80
2018-07-28T12:58:28.230Z,16.40
2018-07-28T13:00:55.883Z,14.60
2018-07-28T13:03:23.854Z,14.40
2018-07-28T13:05:51.958Z,15.20
2018-07-28T13:08:19.598Z,11.00
2018-07-28T13:10:47.293Z,15.20
2018-07-28T13:13:16.107Z,13.20
2018-07-28T13:15:43.741Z,17.00
2018-07-28T13:18:12.552Z,14.80
2018-07-28T13:20:41.225Z,12.00
2018-07-28T13:23:10.746Z,15.60
2018-07-28T13:25:38.649Z,11.80
2018-07-28T13:28:06.774Z,17.80
2018-07-28T13:30:34.408Z,17.00
2018-07-28T13:33:03.003Z,16.40
2018-07-28T13:35:31.779Z,14.60
2018-07-28T13:38:01.240Z,17.40
2018-07-28T13:40:28.980Z,19.20
2018-07-28T13:42:59.637Z,19.80
2018-07-28T13:45:28.674Z,18.40
2018-07-28T13:47:56.330Z,17.60
2018-07-28T13:50:25.227Z,12.20
2018-07-28T13:52:57.368Z,18.00
2018-07-28T13:55:25.367Z,18.40
2018-07-28T13:57:53.485Z,19.20
2018-07-28T14:00:21.377Z,22.20
2018-07-28T14:02:50.634Z,20.80
2018-07-28T14:05:18.695Z,20.80
2018-07-28T14:07:46.586Z,21.20
2018-07-28T14:10:14.331Z,20.40
2018-07-28T14:12:44.472Z,23.20
2018-07-28T14:15:13.395Z,22.20
2018-07-28T14:17:41.084Z,14.40
2018-07-28T14:20:10.039Z,23.00
2018-07-28T14:22:38.592Z,20.00
2018-07-28T14:25:07.163Z,18.20
2018-07-28T14:27:35.463Z,25.00
2018-07-28T14:30:04.684Z,20.20
2018-07-28T14:32:33.350Z,21.80
2018-07-28T14:35:02.242Z,21.80
2018-07-28T14:37:29.922Z,18.60
2018-07-28T14:39:57.557Z,20.60
2018-07-28T14:42:25.719Z,20.20
2018-07-28T14:44:53.379Z,18.40
2018-07-28T14:47:22.360Z,21.00
2018-07-28T14:49:50.343Z,19.20
2018-07-28T14:52:18.103Z,19.00
2018-07-28T14:54:45.823Z,22.80
2018-07-28T14:57:13.938Z,18.20
2018-07-28T14:59:41.598Z,22.80
2018-07-28T15:02:10.135Z,20.60
2018-07-28T15:04:40.567Z,19.20
2018-07-28T15:07:08.347Z,26.00
2018-07-28T15:09:36.067Z,19.60
2018-07-28T15:12:04.260Z,23.40
2018-07-28T15:14:31.941Z,21.60
2018-07-28T15:16:59.594Z,23.00
2018-07-28T15:19:27.588Z,21.00
2018-07-28T15:21:55.228Z,22.60
2018-07-28T15:24:23.218Z,24.40
2018-07-28T15:26:51.227Z,26.00
2018-07-28T15:29:21.088Z,25.00
2018-07-28T15:31:48.758Z,22.80
2018-07-28T15:34:16.867Z,29.40
2018-07-28T15:36:45.407Z,27.20
2018-07-28T15:39:14.461Z,22.00
2018-07-28T15:41:43.014Z,25.60
2018-07-28T15:44:10.668Z,24.20
2018-07-28T15:46:38.352Z,24.80
2018-07-28T15:49:06.790Z,20.80
2018-07-28T15:51:35.314Z,19.20
2018-07-28T15:54:06.179Z,20.80
2018-07-28T15:56:34.263Z,19.00
2018-07-28T15:59:02.566Z,18.60
2018-07-28T16:01:30.317Z,16.00
2018-07-28T16:03:57.989Z,19.60
2018-07-28T16:06:26.330Z,17.20
2018-07-28T16:08:54.359Z,20.20
2018-07-28T16:11:22.671Z,19.00
2018-07-28T16:13:50.337Z,18.80
2018-07-28T16:16:20.018Z,18.40
2018-07-28T16:18:48.535Z,17.60
2018-07-28T16:21:19.483Z,21.20
2018-07-28T16:23:47.461Z,18.80
2018-07-28T16:26:15.176Z,18.40
2018-07-28T16:28:42.871Z,20.20
2018-07-28T16:31:11.486Z,22.20
2018-07-28T16:33:39.309Z,20.20
2018-07-28T16:36:06.979Z,23.60
2018-07-28T16:38:35.137Z,20.00
2018-07-28T16:41:02.783Z,21.40
2018-07-28T16:43:30.453Z,23.20
2018-07-28T16:45:58.502Z,19.40
2018-07-28T16:48:26.631Z,15.60
2018-07-28T16:50:55.328Z,15.40
2018-07-28T16:53:23.333Z,14.60
2018-07-28T16:55:54.922Z,12.40
2018-07-28T16:58:22.571Z,11.60
2018-07-28T17:00:50.533Z,16.60
2018-07-28T17:03:19.110Z,22.40
2018-07-28T17:05:46.812Z,22.00
2018-07-28T17:08:16.198Z,22.20
2018-07-28T17:10:45.410Z,25.00
2018-07-28T17:13:13.107Z,24.00
2018-07-28T17:15:42.283Z,23.20
2018-07-28T17:18:09.950Z,26.80
2018-07-28T17:20:39.556Z,25.00
2018-07-28T17:23:07.479Z,26.60
2018-07-28T17:25:36.717Z,22.60
2018-07-28T17:28:05.002Z,28.40
2018-07-28T17:30:36.207Z,29.20
2018-07-28T17:33:08.948Z,29.40
2018-07-28T17:35:40.168Z,31.60
2018-07-28T17:38:08.347Z,29.00
2018-07-28T17:40:36.548Z,32.20
2018-07-28T17:43:05.629Z,29.20
2018-07-28T17:45:38.099Z,32.60
2018-07-28T17:48:07.410Z,29.60
2018-07-28T17:50:35.768Z,31.00
2018-07-28T17:53:05.527Z,32.80
2018-07-28T17:55:33.229Z,38.00
2018-07-28T17:58:01.713Z,31.20
2018-07-28T18:00:30.191Z,28.60
2018-07-28T18:02:57.871Z,31.00
2018-07-28T18:05:26.156Z,25.00
2018-07-28T18:07:55.185Z,32.40
2018-07-28T18:10:24.501Z,31.20
2018-07-28T18:12:52.165Z,30.80
2018-07-28T18:15:20.107Z,33.00
2018-07-28T18:17:47.786Z,28.00
2018-07-28T18:20:16.059Z,32.20
2018-07-28T18:22:44.007Z,31.80
2018-07-28T18:25:11.713Z,32.20
2018-07-28T18:27:39.420Z,29.00
2018-07-28T18:30:07.689Z,24.60
2018-07-28T18:32:35.331Z,31.80
2018-07-28T18:35:04.351Z,29.80
2018-07-28T18:37:33.132Z,28.60
2018-07-28T18:40:00.766Z,28.40
2018-07-28T18:42:29.279Z,33.20
2018-07-28T18:44:57.252Z,30.20
2018-07-28T18:47:25.207Z,32.40
2018-07-28T18:49:52.898Z,29.60
2018-07-28T18:52:22.671Z,36.60
2018-07-28T18:54:50.510Z,32.80
2018-07-28T18:57:18.172Z,37.80
2018-07-28T18:59:49.218Z,29.20
2018-07-28T19:02:18.067Z,34.80
2018-07-28T19:04:46.772Z,33.20
2018-07-28T19:07:16.438Z,34.40
2018-07-28T19:09:51.542Z,30.20
2018-07-28T19:12:23.532Z,32.20
2018-07-28T19:14:51.346Z,34.00
2018-07-28T19:17:20.691Z,30.20
2018-07-28T19:19:48.659Z,38.20
2018-07-28T19:22:21.246Z,39.00
2018-07-28T19:24:48.967Z,37.20
2018-07-28T19:27:17.487Z,34.60
2018-07-28T19:29:46.967Z,34.60
2018-07-28T19:32:14.652Z,33.60
2018-07-28T19:34:42.360Z,32.80
2018-07-28T19:37:15.668Z,37.20
2018-07-28T19:39:44.471Z,35.20
2018-07-28T19:42:17.716Z,34.20
2018-07-28T19:44:47.359Z,40.00
2018-07-28T19:47:16.320Z,33.80
2018-07-28T19:49:44.671Z,32.20
2018-07-28T19:52:15.390Z,39.00
2018-07-28T19:54:46.626Z,39.80
2018-07-28T19:57:14.568Z,41.00
2018-07-28T19:59:42.261Z,37.80
2018-07-28T20:02:10.239Z,35.00
2018-07-28T20:04:37.937Z,41.80
2018-07-28T20:07:07.965Z,36.60
2018-07-28T20:09:36.771Z,36.60
2018-07-28T20:12:04.459Z,33.60
2018-07-28T20:14:32.836Z,32.60
2018-07-28T20:17:00.810Z,35.80
2018-07-28T20:19:29.426Z,36.00
2018-07-28T20:22:05.498Z,37.80
2018-07-28T20:24:34.299Z,37.80
2018-07-28T20:27:03.399Z,31.80
2018-07-28T20:29:31.633Z,33.40
2018-07-28T20:32:00.109Z,34.60
2018-07-28T20:34:28.741Z,40.40
2018-07-28T20:36:56.444Z,40.80
2018-07-28T20:39:24.474Z,36.20
2018-07-28T20:41:52.318Z,40.00
2018-07-28T20:44:21.965Z,37.40
2018-07-28T20:46:49.949Z,41.60
2018-07-28T20:49:18.858Z,32.00
2018-07-28T20:51:50.467Z,41.40
2018-07-28T20:54:18.465Z,37.20
2018-07-28T20:56:46.993Z,42.80
2018-07-28T20:59:20.453Z,38.20
2018-07-28T21:01:54.471Z,37.20
2018-07-28T21:04:23.456Z,33.60
2018-07-28T21:06:52.459Z,37.00
2018-07-28T21:09:21.251Z,38.00
2018-07-28T21:11:49.645Z,38.60
2018-07-28T21:14:17.321Z,41.00
2018-07-28T21:16:45.263Z,38.80
2018-07-28T21:19:12.955Z,41.40
2018-07-28T21:21:42.350Z,35.60
2018-07-28T21:24:14.300Z,40.20
2018-07-28T21:26:43.269Z,37.40
2018-07-28T21:29:11.970Z,34.60
2018-07-28T21:31:39.935Z,30.20
2018-07-28T21:34:07.599Z,36.40
2018-07-28T21:36:35.555Z,33.00
2018-07-28T21:39:03.651Z,40.40
2018-07-28T21:41:31.332Z,38.20
2018-07-28T21:43:58.993Z,41.00
2018-07-28T21:46:27.643Z,37.80
2018-07-28T21:48:55.312Z,40.60
2018-07-28T21:51:23.819Z,41.20
2018-07-28T21:53:51.749Z,44.40
2018-07-28T21:56:23.755Z,32.20
2018-07-28T21:58:51.415Z,38.00
2018-07-28T22:01:19.507Z,39.40
2018-07-28T22:03:49.601Z,43.40
2018-07-28T22:06:17.230Z,42.80
2018-07-28T22:08:45.881Z,43.80
2018-07-28T22:11:14.343Z,38.40
2018-07-28T22:13:42.560Z,38.60
2018-07-28T22:16:10.606Z,39.80
2018-07-28T22:18:39.350Z,41.20
2018-07-28T22:21:07.003Z,41.60
2018-07-28T22:23:35.786Z,36.80
2018-07-28T22:26:05.631Z,37.00
2018-07-28T22:28:33.926Z,38.00
2018-07-28T22:31:02.459Z,39.60
2018-07-28T22:33:30.144Z,35.20
2018-07-28T22:35:58.780Z,39.20
2018-07-28T22:38:26.742Z,37.00
2018-07-28T22:40:56.630Z,37.00
2018-07-28T22:43:25.264Z,39.60
2018-07-28T22:45:54.651Z,39.60
2018-07-28T22:48:23.187Z,36.80
2018-07-28T22:50:51.656Z,40.00
2018-07-28T22:53:19.672Z,38.40
2018-07-28T22:55:47.403Z,40.60
2018-07-28T22:58:15.077Z,44.00
2018-07-28T23:00:43.271Z,43.80
2018-07-28T23:03:10.971Z,35.00
2018-07-28T23:05:38.666Z,40.60
2018-07-28T23:08:06.317Z,39.40
2018-07-28T23:10:34.288Z,42.20
2018-07-28T23:13:02.758Z,41.20
2018-07-28T23:15:30.457Z,37.80
2018-07-28T23:17:58.394Z,35.60
2018-07-28T23:20:26.065Z,37.60
2018-07-28T23:22:53.714Z,38.00
2018-07-28T23:25:25.493Z,39.00
2018-07-28T23:27:54.371Z,35.20
2018-07-28T23:30:22.546Z,36.40
2018-07-28T23:32:51.296Z,34.00
2018-07-28T23:35:18.971Z,40.40
2018-07-28T23:37:46.609Z,31.60
2018-07-28T23:40:14.582Z,40.60
2018-07-28T23:42:42.267Z,33.60
2018-07-28T23:45:11.017Z,36.20
2018-07-28T23:47:38.680Z,35.60
2018-07-28T23:52:37.206Z,36.40
2018-07-28T23:55:04.871Z,31.60
2018-07-28T23:57:32.942Z,40.60
